Sunday, April 21, 2019, 11:12 PM EDT
Back to Local

KJYO, Leesburg / Godfrey

Location: Leesburg, VA, United States Lat: 39.083
Local Time: 11:12 PM EDT ( 3:12 GMT) Lon: -77.567
Time Zone: US/Eastern Elev: 390 ft

Show me the last for .
Show Decoded

2019-04-21 22:35 METAR KJYO 220235Z AUTO 34011G15KT 10SM SCT075 BKN110 15/09 A3011 RMK AO2 =
2019-04-21 22:15 METAR KJYO 220215Z AUTO 34008KT 10SM SCT110 15/09 A3011 RMK AO2 =
2019-04-21 21:55 METAR KJYO 220155Z AUTO 35006KT 10SM SCT110 15/09 A3010 RMK AO2 =
2019-04-21 21:35 METAR KJYO 220135Z AUTO 34007KT 10SM SCT085 BKN110 15/10 A3010 RMK AO2 =
2019-04-21 21:15 METAR KJYO 220115Z AUTO 35005KT 10SM SCT085 OVC110 15/09 A3009 RMK AO2 =
2019-04-21 20:55 METAR KJYO 220055Z AUTO 36004KT 10SM BKN110 16/09 A3009 RMK AO2 =
2019-04-21 20:35 METAR KJYO 220035Z AUTO 34008KT 10SM SCT110 16/09 A3008 RMK AO2 =
2019-04-21 20:15 METAR KJYO 220015Z AUTO 33008KT 10SM SCT110 16/10 A3007 RMK AO2 =
2019-04-21 19:55 METAR KJYO 212355Z AUTO 32009KT 10SM SCT080 SCT110 16/09 A3007 RMK AO2 =
2019-04-21 19:35 METAR KJYO 212335Z AUTO 35004KT 10SM BKN070 OVC110 17/08 A3006 RMK AO2 =
2019-04-21 19:15 METAR KJYO 212315Z AUTO 01005KT 10SM SCT070 OVC110 18/08 A3005 RMK AO2 =
2019-04-21 18:55 METAR KJYO 212255Z AUTO 36007KT 10SM SCT070 OVC110 18/08 A3005 RMK AO2 =
2019-04-21 18:35 METAR KJYO 212235Z AUTO 36007KT 10SM BKN070 OVC110 18/08 A3005 RMK AO2 =
2019-04-21 18:15 METAR KJYO 212215Z AUTO 35009KT 10SM OVC110 18/08 A3004 RMK AO2 =
2019-04-21 17:55 METAR KJYO 212155Z AUTO 01009G14KT 10SM OVC095 20/08 A3003 RMK AO2 =
2019-04-21 17:35 METAR KJYO 212135Z AUTO 01006KT 10SM OVC095 19/08 A3002 RMK AO2 =
2019-04-21 17:15 METAR KJYO 212115Z AUTO 32010KT 10SM OVC095 18/09 A3002 RMK AO2 =
2019-04-21 16:55 METAR KJYO 212055Z AUTO 34009G16KT 10SM OVC085 18/08 A3002 RMK AO2 =
2019-04-21 16:35 METAR KJYO 212035Z AUTO 31010KT 10SM OVC075 18/09 A3002 RMK AO2 =
2019-04-21 16:15 METAR KJYO 212015Z AUTO 33011G14KT 10SM SCT065 OVC075 18/08 A3001 RMK AO2 =
2019-04-21 15:55 METAR KJYO 211955Z AUTO 33014G18KT 10SM SCT065 BKN075 20/10 A3001 RMK AO2 =
2019-04-21 15:35 METAR KJYO 211935Z AUTO 33011KT 10SM SCT055 SCT075 SCT085 20/08 A3000 RMK AO2 =
2019-04-21 15:15 METAR KJYO 211915Z AUTO 02004KT 10SM SCT055 SCT075 20/08 A3000 RMK AO2 =
2019-04-21 14:55 METAR KJYO 211855Z AUTO 30005KT 10SM CLR 20/08 A3000 RMK AO2 =
2019-04-21 14:35 METAR KJYO 211835Z AUTO 33004KT 10SM SCT070 18/08 A3001 RMK AO2 =
2019-04-21 14:15 METAR KJYO 211815Z AUTO 02005KT 10SM SCT050 BKN070 18/08 A3001 RMK AO2 =
2019-04-21 13:55 METAR KJYO 211755Z AUTO 33005KT 10SM SCT050 BKN060 19/09 A3001 RMK AO2 =
2019-04-21 13:35 METAR KJYO 211735Z AUTO 01006KT 10SM SCT049 OVC060 18/08 A3001 RMK AO2 =
2019-04-21 13:15 METAR KJYO 211715Z AUTO 34007KT 10SM SCT049 BKN060 18/08 A3001 RMK AO2 =
2019-04-21 12:55 METAR KJYO 211655Z AUTO 31005KT 10SM SCT046 BKN050 17/08 A3001 RMK AO2 =
2019-04-21 12:35 METAR KJYO 211635Z AUTO 32007KT 10SM SCT044 18/10 A3001 RMK AO2 =
2019-04-21 12:15 METAR KJYO 211615Z AUTO 28004KT 10SM SCT042 17/08 A3002 RMK AO2 =
2019-04-21 11:55 METAR KJYO 211555Z AUTO 32006KT 10SM SCT040 SCT046 17/08 A3002 RMK AO2 =
2019-04-21 11:35 METAR KJYO 211535Z AUTO 27004KT 10SM SCT040 17/08 A3002 RMK AO2 =
2019-04-21 11:15 METAR KJYO 211515Z AUTO 34003KT 10SM CLR 16/09 A3001 RMK AO2 =
2019-04-21 10:55 METAR KJYO 211455Z AUTO 35003KT 10SM CLR 16/08 A3001 RMK AO2 =
2019-04-21 10:35 METAR KJYO 211435Z AUTO 01005KT 10SM CLR 15/08 A3001 RMK AO2 =
2019-04-21 10:15 METAR KJYO 211415Z AUTO 33007KT 10SM CLR 15/08 A3000 RMK AO2 =
2019-04-21 09:55 METAR KJYO 211355Z AUTO 33006KT 10SM CLR 14/08 A3000 RMK AO2 =
2019-04-21 09:35 METAR KJYO 211335Z AUTO 32003KT 10SM CLR 13/08 A3000 RMK AO2 =
2019-04-21 09:15 METAR KJYO 211315Z AUTO 00000KT 10SM CLR 13/08 A3000 RMK AO2 =
2019-04-21 08:55 METAR KJYO 211255Z AUTO 25003KT 10SM CLR 12/08 A2998 RMK AO2 =
2019-04-21 08:35 METAR KJYO 211235Z AUTO 00000KT 10SM CLR 11/08 A2998 RMK AO2 =
2019-04-21 08:15 METAR KJYO 211215Z AUTO 00000KT 10SM CLR 10/08 A2997 RMK AO2 =
2019-04-21 07:55 METAR KJYO 211155Z AUTO 25003KT 10SM CLR 10/08 A2996 RMK AO2 =
2019-04-21 07:30 METAR KJYO 211130Z AUTO 00000KT 10SM CLR 10/07 A2995 RMK AO2 =
2019-04-21 07:15 METAR KJYO 211115Z AUTO 00000KT 10SM CLR 09/07 A2995 RMK AO2 =
2019-04-21 06:55 METAR KJYO 211055Z AUTO 23004KT 10SM CLR 08/07 A2994 RMK AO2 =
2019-04-21 06:35 METAR KJYO 211035Z AUTO 18004KT 10SM CLR 09/07 A2993 RMK AO2 =
2019-04-21 06:15 METAR KJYO 211015Z AUTO 18004KT 10SM CLR 10/07 A2992 RMK AO2 =
2019-04-21 05:55 METAR KJYO 210955Z AUTO 20003KT 10SM CLR 10/07 A2990 RMK AO2 =
2019-04-21 05:35 METAR KJYO 210935Z AUTO 20003KT 10SM CLR 10/07 A2990 RMK AO2 =
2019-04-21 05:15 METAR KJYO 210915Z AUTO 23003KT 10SM CLR 10/07 A2990 RMK AO2 =
2019-04-21 04:55 METAR KJYO 210855Z AUTO 22004KT 10SM CLR 10/07 A2989 RMK AO2 =
2019-04-21 04:35 METAR KJYO 210835Z AUTO 20005KT 10SM CLR 11/07 A2988 RMK AO2 =
2019-04-21 04:15 METAR KJYO 210815Z AUTO 20007KT 10SM CLR 11/07 A2988 RMK AO2 =
2019-04-21 03:55 METAR KJYO 210755Z AUTO 17005KT 10SM CLR 12/07 A2987 RMK AO2 =
2019-04-21 03:35 METAR KJYO 210735Z AUTO 16003KT 10SM CLR 12/07 A2986 RMK AO2 =
2019-04-21 03:10 METAR KJYO 210710Z AUTO 23005KT 10SM SCT095 12/07 A2985 RMK AO2 =
2019-04-21 02:50 METAR KJYO 210650Z AUTO 23003KT 10SM OVC095 13/07 A2985 RMK AO2 =
2019-04-21 02:35 METAR KJYO 210635Z AUTO 23003KT 10SM OVC095 13/07 A2985 RMK AO2 =
2019-04-21 02:15 METAR KJYO 210615Z AUTO 19005KT 10SM OVC085 13/07 A2985 RMK AO2 =
2019-04-21 01:55 METAR KJYO 210555Z AUTO 19005KT 10SM OVC075 13/07 A2985 RMK AO2 =
2019-04-21 01:35 METAR KJYO 210535Z AUTO 18004KT 10SM OVC075 14/07 A2985 RMK AO2 =
2019-04-21 01:15 METAR KJYO 210515Z AUTO 18004KT 10SM OVC075 15/06 A2985 RMK AO2 =
2019-04-21 00:55 METAR KJYO 210455Z AUTO 18005KT 10SM OVC070 15/06 A2985 RMK AO2 =
2019-04-21 00:35 METAR KJYO 210435Z AUTO 17006KT 10SM OVC070 15/06 A2985 RMK AO2 =
2019-04-21 00:15 METAR KJYO 210415Z AUTO 19006KT 10SM OVC070 15/06 A2984 RMK AO2 =
2019-04-20 23:55 METAR KJYO 210355Z AUTO 20005KT 10SM BKN070 OVC085 15/06 A2983 RMK AO2 =
2019-04-20 23:35 METAR KJYO 210335Z AUTO 20006KT 10SM SCT070 OVC085 15/06 A2983 RMK AO2 =

Support USWX by starting your Amazon purchase here.